Time;durP1;ratioP1;P1;durP2;ratioP2;P2;SDS_P1;SDS_P2;PMS_P1;PMS_P2;Temp;Humidity;BMP_temperature;BMP_pressure;BME280_temperature;BME280_humidity;BME280_pressure;Samples;Min_cycle;Max_cycle;Signal;HPM_P1;HPM_P2
2022/08/21 00:01:31;;;;;;;2.07;1.10;;;16.10;99.90;;;;;;5085596;28;21277;-82
2022/08/21 00:04:04;;;;;;;0.97;0.77;;;16.10;99.90;;;;;;5086860;28;20472;-82
2022/08/21 00:06:32;;;;;;;1.37;0.80;;;16.00;99.90;;;;;;5077049;28;20466;-82
2022/08/21 00:08:59;;;;;;;1.27;0.70;;;16.10;99.90;;;;;;5084385;28;21183;-82
2022/08/21 00:11:27;;;;;;;1.10;0.80;;;16.10;99.90;;;;;;5076896;28;20556;-82
2022/08/21 00:13:54;;;;;;;1.83;1.20;;;16.10;99.90;;;;;;5081409;28;20544;-82
2022/08/21 00:16:21;;;;;;;1.30;1.03;;;16.10;99.90;;;;;;5084992;28;20466;-84
2022/08/21 00:18:48;;;;;;;1.60;0.90;;;16.10;99.90;;;;;;5085259;28;20494;-85
2022/08/21 00:21:17;;;;;;;1.03;0.70;;;16.20;99.90;;;;;;5078389;28;20455;-83
2022/08/21 00:23:44;;;;;;;1.50;1.10;;;16.20;99.90;;;;;;5078856;28;20454;-83
2022/08/21 00:26:11;;;;;;;1.23;1.00;;;16.20;99.90;;;;;;5082708;28;20519;-82
2022/08/21 00:28:38;;;;;;;1.77;1.20;;;16.20;99.90;;;;;;5081619;28;20470;-82
2022/08/21 00:31:06;;;;;;;0.97;0.90;;;16.20;99.90;;;;;;5084745;28;20524;-82
2022/08/21 00:33:33;;;;;;;1.20;1.03;;;16.20;99.90;;;;;;5084858;28;20910;-82
2022/08/21 00:36:01;;;;;;;1.80;1.43;;;16.20;99.90;;;;;;5083651;28;20533;-82
2022/08/21 00:38:29;;;;;;;3.80;1.10;;;16.20;99.90;;;;;;5078999;28;20540;-85
2022/08/21 00:40:58;;;;;;;1.07;0.97;;;16.30;99.90;;;;;;5078315;28;20490;-82
2022/08/21 00:43:28;;;;;;;1.83;0.93;;;16.20;99.90;;;;;;5086399;28;21000;-82
2022/08/21 00:45:56;;;;;;;2.00;1.23;;;16.30;99.90;;;;;;5083892;28;20545;-84
2022/08/21 00:48:25;;;;;;;0.87;0.83;;;16.30;99.90;;;;;;5082228;28;20549;-83
2022/08/21 00:50:57;;;;;;;1.87;1.60;;;16.30;99.90;;;;;;5081155;28;20467;-82
2022/08/21 00:53:25;;;;;;;2.00;1.90;;;16.30;99.90;;;;;;5079134;28;20574;-82
2022/08/21 00:55:55;;;;;;;2.07;1.30;;;16.30;99.90;;;;;;5079590;28;20467;-82
2022/08/21 00:58:23;;;;;;;1.30;1.00;;;16.40;99.90;;;;;;5083866;28;20476;-83
2022/08/21 01:00:51;;;;;;;1.03;0.93;;;16.40;99.90;;;;;;5074869;28;20458;-82
2022/08/21 01:03:20;;;;;;;1.50;1.40;;;16.40;99.90;;;;;;5079788;28;20565;-85
2022/08/21 01:05:48;;;;;;;1.77;1.50;;;16.40;99.90;;;;;;5088395;28;20468;-82
2022/08/21 01:08:17;;;;;;;2.23;2.00;;;16.40;99.90;;;;;;5081307;28;20516;-82
2022/08/21 01:10:45;;;;;;;2.97;2.00;;;16.40;99.90;;;;;;5078536;28;21017;-82
2022/08/21 01:13:17;;;;;;;2.93;2.40;;;16.40;99.90;;;;;;5080386;28;20488;-82
2022/08/21 01:15:47;;;;;;;4.87;3.40;;;16.40;99.90;;;;;;5081561;28;20464;-84
2022/08/21 01:18:14;;;;;;;2.20;1.80;;;16.30;99.90;;;;;;5082166;28;20462;-84
2022/08/21 01:20:45;;;;;;;2.90;2.60;;;16.40;99.90;;;;;;5088666;28;20915;-82
2022/08/21 01:23:14;;;;;;;2.37;1.60;;;16.40;99.90;;;;;;5080839;28;21148;-83
2022/08/21 01:25:41;;;;;;;2.10;1.97;;;16.40;99.90;;;;;;5079412;28;20468;-85
2022/08/21 01:28:13;;;;;;;2.77;2.57;;;16.40;99.90;;;;;;5074064;28;20547;-82
2022/08/21 01:30:41;;;;;;;3.27;2.37;;;16.30;99.90;;;;;;5077084;28;20474;-83
2022/08/21 01:33:08;;;;;;;4.40;1.20;;;16.30;99.90;;;;;;5082532;28;20585;-85
2022/08/21 01:35:35;;;;;;;3.80;2.80;;;16.40;99.90;;;;;;5076914;28;20477;-83
2022/08/21 01:38:02;;;;;;;2.07;1.60;;;16.40;99.90;;;;;;5073075;28;20462;-82
2022/08/21 01:40:30;;;;;;;1.97;1.87;;;16.40;99.90;;;;;;5083673;28;20864;-82
2022/08/21 01:42:57;;;;;;;2.73;2.53;;;16.30;99.90;;;;;;5081720;28;20521;-82
2022/08/21 01:45:25;;;;;;;3.77;2.00;;;16.30;99.90;;;;;;5080351;28;20973;-82
2022/08/21 01:47:52;;;;;;;2.53;2.33;;;16.30;99.90;;;;;;5079001;28;20466;-82
2022/08/21 01:50:20;;;;;;;2.00;1.60;;;16.30;99.90;;;;;;5076251;28;20561;-82
2022/08/21 01:52:48;;;;;;;3.60;2.70;;;16.30;99.90;;;;;;5075747;28;20522;-82
2022/08/21 01:55:17;;;;;;;1.90;1.73;;;16.30;99.90;;;;;;5087008;28;20533;-85
2022/08/21 01:57:46;;;;;;;2.17;1.97;;;16.30;99.90;;;;;;5079618;28;21104;-82
2022/08/21 02:00:16;;;;;;;4.33;3.10;;;16.30;99.90;;;;;;5082415;28;20871;-82
2022/08/21 02:02:43;;;;;;;3.67;1.97;;;16.30;99.90;;;;;;5076481;28;20982;-84
2022/08/21 02:05:12;;;;;;;2.97;1.97;;;16.30;99.90;;;;;;5078957;28;20470;-83
2022/08/21 02:07:41;;;;;;;3.70;2.77;;;16.30;99.90;;;;;;5077390;28;20502;-82
2022/08/21 02:10:10;;;;;;;2.17;1.50;;;16.30;99.90;;;;;;5079263;28;20470;-84
2022/08/21 02:12:37;;;;;;;3.00;2.37;;;16.20;99.90;;;;;;5078079;28;20538;-82
2022/08/21 02:15:07;;;;;;;2.73;2.23;;;16.30;99.90;;;;;;5083397;28;20551;-83
2022/08/21 02:17:43;;;;;;;2.83;2.60;;;16.30;99.90;;;;;;5076065;28;20981;-82
2022/08/21 02:20:12;;;;;;;4.03;3.73;;;16.30;99.90;;;;;;5079503;28;20474;-82
2022/08/21 02:22:39;;;;;;;3.43;2.90;;;16.30;99.90;;;;;;5073457;28;20507;-83
2022/08/21 02:25:07;;;;;;;3.90;2.30;;;16.40;99.90;;;;;;5080319;28;20465;-85
2022/08/21 02:27:39;;;;;;;1.97;1.83;;;16.40;99.90;;;;;;5079005;28;20466;-85
2022/08/21 02:30:09;;;;;;;2.43;1.73;;;16.40;99.90;;;;;;5079299;28;20542;-82
2022/08/21 02:32:36;;;;;;;4.13;2.23;;;16.40;99.90;;;;;;5079832;28;21063;-84
2022/08/21 02:35:04;;;;;;;4.63;3.40;;;16.40;99.90;;;;;;5082427;28;20562;-82
2022/08/21 02:37:31;;;;;;;3.57;2.57;;;16.40;99.90;;;;;;5090444;28;21009;-82
2022/08/21 02:39:57;;;;;;;2.50;2.20;;;16.40;99.90;;;;;;5085543;28;20516;-82
2022/08/21 02:42:24;;;;;;;3.17;2.20;;;16.40;99.90;;;;;;5085245;28;20464;-82
2022/08/21 02:44:52;;;;;;;5.27;3.07;;;16.40;99.90;;;;;;5092853;28;20885;-81
2022/08/21 02:47:20;;;;;;;4.27;2.53;;;16.40;99.90;;;;;;5081248;28;20459;-83
2022/08/21 02:49:47;;;;;;;2.47;1.93;;;16.40;99.90;;;;;;5078985;28;20520;-82
2022/08/21 02:52:14;;;;;;;3.27;2.87;;;16.40;99.90;;;;;;5078583;28;20468;-85
2022/08/21 02:54:41;;;;;;;4.63;3.03;;;16.40;99.90;;;;;;5083871;28;20462;-83
2022/08/21 02:57:09;;;;;;;1.83;1.70;;;16.50;99.90;;;;;;5079051;28;20988;-83
2022/08/21 02:59:36;;;;;;;2.57;2.47;;;16.50;99.90;;;;;;5080581;28;20544;-82
2022/08/21 03:02:03;;;;;;;5.90;2.80;;;16.50;99.90;;;;;;5076129;28;20468;-84
2022/08/21 03:04:32;;;;;;;2.00;1.80;;;16.50;99.90;;;;;;5078468;28;20462;-84
2022/08/21 03:06:59;;;;;;;4.43;3.07;;;16.40;99.90;;;;;;5079559;28;20527;-83
2022/08/21 03:09:26;;;;;;;2.40;1.40;;;16.40;99.90;;;;;;5078442;28;20490;-82
2022/08/21 03:11:53;;;;;;;2.70;2.20;;;16.40;99.90;;;;;;5078724;28;20455;-83
2022/08/21 03:14:20;;;;;;;5.40;1.80;;;16.40;99.90;;;;;;5077975;28;20494;-82
2022/08/21 03:16:47;;;;;;;2.80;2.37;;;16.30;99.90;;;;;;5078163;28;20467;-83
2022/08/21 03:19:14;;;;;;;2.23;2.00;;;16.30;99.90;;;;;;5080134;28;20470;-84
2022/08/21 03:21:43;;;;;;;3.33;1.73;;;16.40;99.90;;;;;;5080303;28;20465;-81
2022/08/21 03:24:10;;;;;;;1.83;1.73;;;16.30;99.90;;;;;;5073968;28;20478;-82
2022/08/21 03:26:37;;;;;;;2.60;2.40;;;16.30;99.90;;;;;;5075376;28;20462;-81
2022/08/21 03:29:05;;;;;;;2.97;1.67;;;16.30;99.90;;;;;;5084119;28;20459;-83
2022/08/21 03:31:32;;;;;;;5.30;1.97;;;16.30;99.90;;;;;;5079494;28;21017;-83
2022/08/21 03:33:59;;;;;;;3.40;2.20;;;16.30;99.90;;;;;;5069111;28;20506;-82
2022/08/21 03:36:26;;;;;;;2.93;2.73;;;16.30;99.90;;;;;;5073263;28;20810;-82
2022/08/21 03:38:55;;;;;;;3.47;2.63;;;16.30;99.90;;;;;;5081386;28;20460;-82
2022/08/21 03:41:22;;;;;;;4.50;2.03;;;16.30;99.90;;;;;;5076654;28;20530;-82
2022/08/21 03:43:49;;;;;;;1.77;1.67;;;16.30;99.90;;;;;;5079439;28;20473;-83
2022/08/21 03:46:16;;;;;;;1.80;1.70;;;16.30;99.90;;;;;;5076883;28;20468;-81
2022/08/21 03:48:43;;;;;;;4.47;2.17;;;16.30;99.90;;;;;;5083185;28;20466;-82
2022/08/21 03:51:10;;;;;;;2.73;1.97;;;16.30;99.90;;;;;;5085005;28;20473;-83
2022/08/21 03:53:37;;;;;;;1.63;1.50;;;16.30;99.90;;;;;;5079022;28;21270;-83
2022/08/21 03:56:06;;;;;;;1.63;1.23;;;16.30;99.90;;;;;;5078970;28;20477;-83
2022/08/21 03:58:33;;;;;;;1.93;1.40;;;16.30;99.90;;;;;;5077981;28;20866;-84
2022/08/21 04:01:03;;;;;;;3.87;2.10;;;16.30;99.90;;;;;;5081591;28;20466;-84
2022/08/21 04:03:30;;;;;;;5.23;1.80;;;16.30;99.90;;;;;;5080197;28;20997;-83
2022/08/21 04:05:57;;;;;;;2.20;1.77;;;16.30;99.90;;;;;;5077021;28;20520;-82
2022/08/21 04:08:24;;;;;;;2.80;1.87;;;16.30;99.90;;;;;;5083854;28;20519;-83
2022/08/21 04:10:56;;;;;;;3.10;2.70;;;16.30;99.90;;;;;;5080616;28;20549;-82
2022/08/21 04:13:26;;;;;;;2.70;1.77;;;16.30;99.90;;;;;;5089951;28;21047;-83
2022/08/21 04:15:53;;;;;;;3.10;1.70;;;16.30;99.90;;;;;;5078690;28;20457;-85
2022/08/21 04:18:20;;;;;;;2.27;1.83;;;16.30;99.90;;;;;;5074995;28;20911;-82
2022/08/21 04:20:50;;;;;;;11.03;2.57;;;16.30;99.90;;;;;;5073683;28;20531;-85
2022/08/21 04:23:17;;;;;;;1.80;1.70;;;16.30;99.90;;;;;;5073457;28;20462;-83
2022/08/21 04:25:44;;;;;;;1.97;1.77;;;16.20;99.90;;;;;;5072565;28;20462;-83
2022/08/21 04:28:11;;;;;;;4.03;2.03;;;16.30;99.90;;;;;;5074860;28;20446;-82
2022/08/21 04:30:40;;;;;;;1.87;1.40;;;16.30;99.90;;;;;;5075466;28;20542;-82
2022/08/21 04:33:07;;;;;;;2.97;1.97;;;16.30;99.90;;;;;;5077494;28;20488;-82
2022/08/21 04:35:34;;;;;;;4.93;1.97;;;16.30;99.90;;;;;;5081934;28;20506;-82
2022/08/21 04:38:01;;;;;;;2.50;1.93;;;16.40;99.90;;;;;;5073854;28;21056;-83
2022/08/21 04:40:29;;;;;;;3.83;3.20;;;16.40;99.90;;;;;;5083268;28;20504;-82
2022/08/21 04:42:59;;;;;;;1.87;1.77;;;16.40;99.90;;;;;;5083497;28;20446;-83
2022/08/21 04:45:29;;;;;;;3.10;2.10;;;16.40;99.90;;;;;;5081830;28;20446;-83
2022/08/21 04:47:59;;;;;;;2.23;2.03;;;16.40;99.90;;;;;;5078810;28;20461;-83
2022/08/21 04:50:30;;;;;;;1.93;1.37;;;16.50;99.90;;;;;;5079514;28;20850;-83
2022/08/21 04:52:58;;;;;;;1.40;1.30;;;16.40;99.90;;;;;;5086309;28;20563;-83
2022/08/21 04:55:27;;;;;;;1.60;1.47;;;16.40;99.90;;;;;;5081251;28;20467;-83
2022/08/21 04:57:55;;;;;;;3.63;2.43;;;16.40;99.90;;;;;;5079272;28;20456;-84
2022/08/21 05:00:24;;;;;;;1.73;1.63;;;16.40;99.90;;;;;;5078035;28;20476;-82
2022/08/21 05:02:56;;;;;;;1.67;1.57;;;16.40;99.90;;;;;;5064786;28;20468;-81
2022/08/21 05:05:25;;;;;;;1.77;1.20;;;16.40;99.90;;;;;;5075561;28;20461;-83
2022/08/21 05:07:53;;;;;;;1.47;1.37;;;16.40;99.90;;;;;;5074315;28;20464;-83
2022/08/21 05:10:21;;;;;;;2.17;1.30;;;16.40;99.90;;;;;;5058150;28;20544;-83
2022/08/21 05:12:48;;;;;;;2.30;1.30;;;16.50;99.90;;;;;;5058445;28;21170;-83
2022/08/21 05:15:16;;;;;;;1.80;1.47;;;16.40;99.90;;;;;;5061801;28;20570;-85
2022/08/21 05:17:44;;;;;;;2.27;1.63;;;16.50;99.90;;;;;;5058372;28;20465;-84
2022/08/21 05:20:13;;;;;;;1.80;1.43;;;16.50;99.90;;;;;;5058483;28;20548;-82
2022/08/21 05:22:42;;;;;;;1.30;1.20;;;16.50;99.90;;;;;;5061809;28;20469;-86
2022/08/21 05:25:11;;;;;;;2.30;1.33;;;16.50;99.90;;;;;;5071262;28;21310;-83
2022/08/21 05:27:39;;;;;;;3.10;1.90;;;16.50;99.90;;;;;;5065010;28;20465;-82
2022/08/21 05:30:08;;;;;;;2.00;1.33;;;16.50;99.90;;;;;;5075755;28;20469;-83
2022/08/21 05:32:36;;;;;;;1.70;1.50;;;16.60;99.90;;;;;;5058710;28;20468;-85
2022/08/21 05:35:03;;;;;;;2.50;1.57;;;16.50;99.90;;;;;;5086529;28;21211;-83
2022/08/21 05:37:30;;;;;;;1.27;1.17;;;16.60;99.90;;;;;;5094455;28;20577;-84
2022/08/21 05:40:00;;;;;;;1.70;1.60;;;16.60;99.90;;;;;;5075738;28;20450;-83
2022/08/21 05:42:27;;;;;;;1.37;1.10;;;16.60;99.90;;;;;;5076807;28;20455;-83
2022/08/21 05:44:54;;;;;;;1.60;1.50;;;16.70;99.90;;;;;;5084117;28;20501;-83
2022/08/21 05:47:21;;;;;;;2.20;1.20;;;16.70;99.90;;;;;;5073017;28;20518;-83
2022/08/21 05:49:48;;;;;;;1.23;1.13;;;16.70;99.90;;;;;;5078914;28;20966;-84
2022/08/21 05:52:20;;;;;;;1.60;1.50;;;16.80;99.90;;;;;;5078853;28;20508;-85
2022/08/21 05:54:47;;;;;;;2.70;1.67;;;16.80;99.90;;;;;;5073235;28;20480;-83
2022/08/21 05:57:15;;;;;;;1.87;1.30;;;16.80;99.90;;;;;;5075806;28;20553;-82
2022/08/21 05:59:42;;;;;;;2.70;1.13;;;16.80;99.90;;;;;;5071742;28;20490;-83
2022/08/21 06:02:10;;;;;;;4.60;1.97;;;16.90;99.90;;;;;;5076952;28;20622;-82
2022/08/21 06:04:38;;;;;;;1.93;1.60;;;16.90;99.90;;;;;;5075672;28;20473;-83
2022/08/21 06:07:05;;;;;;;1.60;1.37;;;16.90;99.90;;;;;;5074020;28;20474;-84
2022/08/21 06:09:33;;;;;;;2.20;1.20;;;17.00;99.90;;;;;;5076070;28;20999;-83
2022/08/21 06:12:04;;;;;;;2.93;2.17;;;17.00;99.90;;;;;;5078462;28;20474;-85
2022/08/21 06:14:33;;;;;;;2.30;1.50;;;17.10;99.90;;;;;;5072333;28;20489;-83
2022/08/21 06:17:04;;;;;;;2.73;1.63;;;17.10;99.90;;;;;;5075883;28;20465;-82
2022/08/21 06:19:31;;;;;;;3.20;2.13;;;17.10;99.90;;;;;;5073069;28;20557;-82
2022/08/21 06:21:58;;;;;;;3.83;3.10;;;17.10;99.90;;;;;;5074443;28;20841;-84
2022/08/21 06:24:25;;;;;;;4.63;2.33;;;17.10;99.90;;;;;;5067914;28;20998;-82
2022/08/21 06:26:53;;;;;;;3.53;2.83;;;17.20;99.90;;;;;;5075208;28;20940;-84
2022/08/21 06:29:20;;;;;;;5.47;2.57;;;17.10;99.90;;;;;;5073100;28;20468;-82
2022/08/21 06:31:49;;;;;;;4.30;3.00;;;17.10;99.90;;;;;;5071959;28;20525;-82
2022/08/21 06:34:16;;;;;;;3.90;2.63;;;17.10;99.90;;;;;;5052212;28;20518;-83
2022/08/21 06:36:43;;;;;;;6.50;3.53;;;17.10;99.90;;;;;;5056308;28;20459;-83
2022/08/21 06:39:11;;;;;;;9.20;4.20;;;17.10;99.90;;;;;;5065303;28;20463;-85
2022/08/21 06:41:38;;;;;;;5.23;3.67;;;17.20;99.90;;;;;;5066674;28;20467;-82
2022/08/21 06:44:05;;;;;;;7.00;3.30;;;17.30;99.90;;;;;;5064342;28;20544;-84
2022/08/21 06:46:32;;;;;;;4.70;3.67;;;17.30;99.90;;;;;;5072990;28;20551;-83
2022/08/21 06:49:01;;;;;;;4.83;4.23;;;17.40;99.90;;;;;;5078992;28;20663;-83
2022/08/21 06:51:29;;;;;;;5.13;3.67;;;17.40;99.90;;;;;;5074291;28;20462;-85
2022/08/21 06:53:56;;;;;;;6.40;2.60;;;17.30;99.90;;;;;;5078526;28;20486;-83
2022/08/21 06:56:24;;;;;;;7.30;5.10;;;17.40;99.90;;;;;;5072024;28;20463;-84
2022/08/21 06:58:51;;;;;;;6.10;3.40;;;17.40;99.90;;;;;;5071356;28;20971;-84
2022/08/21 07:01:27;;;;;;;9.87;5.33;;;17.40;99.90;;;;;;5070408;28;20463;-82
2022/08/21 07:03:54;;;;;;;7.87;5.20;;;17.20;99.90;;;;;;5072354;28;20482;-82
2022/08/21 07:06:22;;;;;;;7.67;3.70;;;17.30;99.90;;;;;;5073911;28;20480;-82
2022/08/21 07:08:49;;;;;;;6.17;3.77;;;17.20;99.90;;;;;;5074255;28;20551;-83
2022/08/21 07:11:20;;;;;;;10.70;4.53;;;17.20;99.90;;;;;;5075243;28;20473;-84
2022/08/21 07:13:52;;;;;;;5.23;2.80;;;17.30;99.90;;;;;;5070439;28;20462;-87
2022/08/21 07:16:19;;;;;;;10.97;4.23;;;17.30;99.90;;;;;;5071574;28;20463;-84
2022/08/21 07:18:46;;;;;;;6.20;3.87;;;17.30;99.90;;;;;;5071299;28;20509;-86
2022/08/21 07:21:13;;;;;;;8.47;4.40;;;17.30;99.90;;;;;;5071248;28;21181;-85
2022/08/21 07:23:44;;;;;;;6.90;4.50;;;17.30;99.90;;;;;;5071739;28;20462;-82
2022/08/21 07:26:16;;;;;;;8.10;4.50;;;17.30;99.90;;;;;;5075275;28;20467;-82
2022/08/21 07:28:43;;;;;;;5.30;3.80;;;17.40;99.90;;;;;;5080017;28;20794;-81
2022/08/21 07:31:13;;;;;;;13.83;5.97;;;17.30;99.90;;;;;;5075367;28;21013;-83
2022/08/21 07:33:41;;;;;;;10.03;4.30;;;17.40;99.90;;;;;;5077021;28;20443;-86
2022/08/21 07:36:08;;;;;;;6.83;4.20;;;17.40;99.90;;;;;;5073518;28;20526;-84
2022/08/21 07:38:35;;;;;;;7.67;4.20;;;17.40;99.90;;;;;;5077315;28;20459;-84
2022/08/21 07:41:10;;;;;;;9.40;5.13;;;17.40;99.90;;;;;;5067515;28;20938;-84
2022/08/21 07:43:38;;;;;;;9.40;5.00;;;17.40;99.90;;;;;;5070965;28;20570;-86
2022/08/21 07:46:05;;;;;;;9.23;6.13;;;17.40;99.90;;;;;;5071220;28;20468;-83
2022/08/21 07:48:33;;;;;;;8.70;5.63;;;17.40;99.90;;;;;;5081192;28;20462;-82
2022/08/21 07:51:05;;;;;;;8.73;4.43;;;17.40;99.90;;;;;;5081988;28;20783;-84
2022/08/21 07:53:32;;;;;;;8.10;4.23;;;17.40;99.90;;;;;;5079181;28;20622;-86
2022/08/21 07:55:59;;;;;;;9.30;5.07;;;17.40;99.90;;;;;;5073425;28;21198;-84
2022/08/21 07:58:28;;;;;;;10.83;5.70;;;17.40;99.90;;;;;;5076582;28;20461;-84
2022/08/21 08:00:55;;;;;;;10.07;4.30;;;17.40;99.90;;;;;;5069108;28;20539;-84
2022/08/21 08:03:22;;;;;;;7.00;4.63;;;17.50;99.90;;;;;;5075244;28;20824;-84
2022/08/21 08:05:49;;;;;;;12.43;5.67;;;17.40;99.90;;;;;;5075363;28;20541;-86
2022/08/21 08:08:16;;;;;;;9.53;5.23;;;17.40;99.90;;;;;;5071435;28;20472;-84
2022/08/21 08:10:44;;;;;;;11.63;6.00;;;17.40;99.90;;;;;;5072278;28;20520;-90
2022/08/21 08:13:11;;;;;;;10.53;5.83;;;17.30;99.90;;;;;;5078956;28;20964;-86
2022/08/21 08:15:40;;;;;;;9.27;6.40;;;17.30;99.90;;;;;;5072942;28;20979;-84
2022/08/21 08:18:07;;;;;;;10.47;5.07;;;17.30;99.90;;;;;;5077851;28;20570;-85
2022/08/21 08:20:34;;;;;;;12.20;7.43;;;17.30;99.90;;;;;;5081796;28;20515;-85
2022/08/21 08:23:01;;;;;;;9.63;7.00;;;17.30;99.90;;;;;;5078855;28;20474;-84
2022/08/21 08:25:28;;;;;;;12.37;6.03;;;17.30;99.90;;;;;;5072842;28;20471;-84
2022/08/21 08:27:55;;;;;;;10.20;6.57;;;17.30;99.90;;;;;;5077411;28;20583;-86
2022/08/21 08:30:23;;;;;;;13.13;6.73;;;17.50;99.90;;;;;;5060961;28;20550;-86
2022/08/21 08:32:52;;;;;;;13.20;7.73;;;17.60;99.90;;;;;;5071448;28;20549;-86
2022/08/21 08:35:19;;;;;;;13.37;6.90;;;17.80;99.90;;;;;;5084744;28;20484;-87
2022/08/21 08:37:47;;;;;;;15.93;7.53;;;17.90;99.90;;;;;;5089215;28;20450;-85
2022/08/21 08:40:18;;;;;;;14.50;7.50;;;18.00;99.90;;;;;;5084570;28;20450;-85
2022/08/21 08:42:47;;;;;;;14.10;6.73;;;18.00;99.90;;;;;;5079665;28;20455;-88
2022/08/21 08:45:18;;;;;;;15.23;7.57;;;18.00;99.90;;;;;;5081567;28;20498;-85
2022/08/21 08:47:48;;;;;;;10.90;6.20;;;18.00;99.90;;;;;;5077281;28;20466;-86
2022/08/21 08:50:22;;;;;;;8.63;5.50;;;18.00;99.90;;;;;;5079715;28;20835;-87
2022/08/21 08:52:54;;;;;;;10.63;7.37;;;18.00;99.90;;;;;;5083173;28;20482;-90
2022/08/21 08:55:33;;;;;;;13.80;8.00;;;18.00;99.90;;;;;;5071720;28;20549;-88
2022/08/21 08:58:02;;;;;;;15.00;6.77;;;17.90;99.90;;;;;;5078493;28;20460;-84
2022/08/21 09:00:30;;;;;;;8.87;5.83;;;17.90;99.90;;;;;;5075788;28;20562;-84
2022/08/21 09:03:00;;;;;;;11.93;8.07;;;17.90;99.90;;;;;;5079067;28;20461;-86
2022/08/21 09:05:30;;;;;;;11.30;6.23;;;18.00;99.90;;;;;;5076952;28;20470;-84
2022/08/21 09:08:19;;;;;;;10.27;5.70;;;18.00;99.90;;;;;;5073822;28;20549;-83
2022/08/21 09:10:59;;;;;;;8.33;5.20;;;18.20;99.90;;;;;;5071794;28;20463;-83
2022/08/21 09:13:40;;;;;;;8.03;5.77;;;18.20;99.90;;;;;;5075879;28;20515;-83
2022/08/21 09:16:19;;;;;;;7.27;5.20;;;18.10;99.90;;;;;;5071512;28;20482;-84
2022/08/21 09:18:59;;;;;;;9.30;6.00;;;18.10;99.90;;;;;;5076944;28;20554;-85
2022/08/21 09:21:36;;;;;;;8.33;5.63;;;18.00;99.90;;;;;;5075631;28;20538;-87
2022/08/21 09:24:18;;;;;;;13.77;8.23;;;18.10;99.90;;;;;;5075028;28;20550;-83
2022/08/21 09:26:51;;;;;;;8.80;5.27;;;18.10;99.90;;;;;;5066988;28;20460;-83
2022/08/21 09:29:21;;;;;;;6.97;5.60;;;18.20;99.90;;;;;;5066596;28;20482;-84
2022/08/21 09:31:48;;;;;;;7.80;5.30;;;18.10;99.90;;;;;;5068400;28;20473;-84
2022/08/21 09:34:26;;;;;;;9.90;5.37;;;18.10;99.90;;;;;;5065377;28;20467;-88
2022/08/21 09:36:54;;;;;;;8.17;6.73;;;18.10;99.90;;;;;;5064500;28;21031;-83
2022/08/21 09:39:26;;;;;;;8.97;5.93;;;18.10;99.90;;;;;;5070415;28;20467;-84
2022/08/21 09:41:58;;;;;;;6.93;4.93;;;18.10;99.90;;;;;;5075950;28;20971;-86
2022/08/21 09:44:28;;;;;;;7.50;6.13;;;18.10;99.90;;;;;;5076924;28;20996;-83
2022/08/21 09:46:55;;;;;;;8.03;5.60;;;18.10;99.90;;;;;;5075230;28;20949;-83
2022/08/21 09:49:29;;;;;;;4.00;2.90;;;18.20;99.90;;;;;;5079214;28;21255;-88
2022/08/21 09:51:59;;;;;;;6.50;4.40;;;18.10;99.90;;;;;;5072255;28;20544;-83
2022/08/21 09:54:30;;;;;;;4.43;2.97;;;18.00;99.90;;;;;;5071321;28;20456;-83
2022/08/21 09:59:45;;;;;;;3.40;3.10;;;17.90;99.90;;;;;;5069626;28;20450;-83
2022/08/21 10:02:26;;;;;;;4.57;2.83;;;17.90;99.90;;;;;;5067106;28;20513;-83
2022/08/21 10:04:56;;;;;;;8.30;4.73;;;17.90;99.90;;;;;;5072767;28;20474;-85
2022/08/21 10:07:27;;;;;;;4.90;3.43;;;17.90;99.90;;;;;;5064891;28;20467;-82
2022/08/21 10:10:02;;;;;;;5.20;3.77;;;17.90;99.90;;;;;;5071531;28;20468;-86
2022/08/21 10:12:37;;;;;;;5.93;4.67;;;17.90;99.90;;;;;;5073843;28;20467;-83
2022/08/21 10:15:14;;;;;;;4.77;2.80;;;17.90;99.90;;;;;;5068776;28;20518;-84
2022/08/21 10:17:51;;;;;;;5.30;2.57;;;17.90;99.90;;;;;;5068313;28;20460;-84
2022/08/21 10:20:23;;;;;;;4.40;3.47;;;18.00;99.90;;;;;;5066556;28;20470;-84
2022/08/21 10:23:01;;;;;;;4.57;3.13;;;18.10;99.90;;;;;;5072237;28;21003;-85
2022/08/21 10:25:36;;;;;;;5.83;3.43;;;18.10;99.90;;;;;;5080864;28;20504;-84
2022/08/21 10:28:11;;;;;;;3.60;2.80;;;18.10;99.90;;;;;;5080825;28;20499;-86
2022/08/21 10:30:46;;;;;;;5.37;3.90;;;18.20;99.90;;;;;;5080799;28;20455;-84
2022/08/21 10:33:26;;;;;;;3.97;3.10;;;18.20;99.90;;;;;;5068806;28;21017;-87
2022/08/21 10:36:00;;;;;;;3.20;2.90;;;18.20;99.90;;;;;;5075782;28;20487;-85
2022/08/21 10:38:55;;;;;;;6.23;3.67;;;18.20;99.90;;;;;;5073495;28;20914;-83
2022/08/21 10:41:29;;;;;;;5.40;2.80;;;18.20;99.90;;;;;;5071216;28;20982;-84
2022/08/21 10:44:08;;;;;;;4.87;3.33;;;18.10;99.90;;;;;;5077008;28;21069;-85
2022/08/21 10:46:46;;;;;;;4.63;3.13;;;18.00;99.90;;;;;;5071348;28;20476;-84
2022/08/21 10:49:22;;;;;;;5.37;4.00;;;18.00;99.90;;;;;;5079187;28;20453;-88
2022/08/21 10:51:57;;;;;;;4.33;2.93;;;17.80;99.90;;;;;;5067331;28;21017;-84
2022/08/21 10:54:36;;;;;;;4.20;3.07;;;17.70;99.90;;;;;;5068423;28;20459;-83
2022/08/21 10:57:16;;;;;;;7.50;3.70;;;17.50;99.90;;;;;;5077294;28;20885;-83
2022/08/21 10:59:51;;;;;;;3.67;3.13;;;17.40;99.90;;;;;;5067736;28;20472;-84
2022/08/21 11:02:27;;;;;;;4.07;3.33;;;17.40;99.90;;;;;;5075871;28;20510;-83
2022/08/21 11:04:59;;;;;;;4.17;2.87;;;17.40;99.90;;;;;;5067762;28;21247;-83
2022/08/21 11:07:31;;;;;;;4.53;2.90;;;17.40;99.90;;;;;;5065288;28;20466;-83
2022/08/21 11:10:09;;;;;;;5.43;3.80;;;17.40;99.90;;;;;;5074815;28;20475;-83
2022/08/21 11:12:42;;;;;;;5.43;3.37;;;17.40;99.90;;;;;;5076046;28;20462;-82
2022/08/21 11:15:28;;;;;;;5.70;5.20;;;17.40;99.90;;;;;;5077260;28;21185;-86
2022/08/21 11:18:02;;;;;;;5.60;4.30;;;17.40;99.90;;;;;;5087179;28;20512;-84
2022/08/21 11:20:33;;;;;;;5.53;4.33;;;17.40;99.90;;;;;;5084608;28;20490;-84
2022/08/21 11:23:07;;;;;;;7.47;4.40;;;17.40;99.90;;;;;;5079643;28;20799;-87
2022/08/21 11:25:41;;;;;;;8.10;3.93;;;17.50;99.90;;;;;;5075674;28;20459;-84
2022/08/21 11:28:14;;;;;;;4.70;3.87;;;17.50;99.90;;;;;;5074419;28;20469;-86
2022/08/21 11:30:53;;;;;;;6.93;4.00;;;17.50;99.90;;;;;;5077445;28;20561;-90
2022/08/21 11:33:34;;;;;;;3.60;2.90;;;17.60;99.90;;;;;;5066078;28;21141;-84
2022/08/21 11:36:08;;;;;;;4.67;3.30;;;17.70;99.90;;;;;;5071434;28;20492;-88
2022/08/21 11:38:40;;;;;;;4.83;2.27;;;17.80;99.90;;;;;;5068445;28;20517;-84
2022/08/21 11:41:20;;;;;;;3.90;2.77;;;17.80;99.90;;;;;;5076802;28;20520;-84
2022/08/21 11:43:54;;;;;;;1.10;1.00;;;17.90;99.90;;;;;;5075522;28;20494;-86
2022/08/21 11:46:30;;;;;;;1.20;0.93;;;18.00;99.90;;;;;;5083558;28;20516;-89
2022/08/21 11:49:10;;;;;;;1.57;1.47;;;18.10;99.90;;;;;;5078721;28;20463;-86
2022/08/21 11:51:42;;;;;;;2.87;1.53;;;18.20;99.90;;;;;;5069570;28;20492;-84
2022/08/21 11:54:17;;;;;;;2.20;1.00;;;18.20;99.90;;;;;;5070544;28;20522;-84
2022/08/21 11:56:51;;;;;;;2.17;1.43;;;18.30;99.90;;;;;;5074610;28;20644;-84
2022/08/21 11:59:23;;;;;;;1.33;1.23;;;18.50;99.90;;;;;;5072663;28;20466;-84
2022/08/21 12:01:52;;;;;;;1.63;1.20;;;18.60;99.90;;;;;;5072559;28;20580;-84
2022/08/21 12:04:26;;;;;;;3.73;1.00;;;18.70;99.90;;;;;;5066106;28;20995;-83
2022/08/21 12:06:53;;;;;;;1.03;0.93;;;19.00;99.90;;;;;;5081024;28;20819;-83
2022/08/21 12:09:34;;;;;;;1.70;1.23;;;18.80;99.90;;;;;;5078180;28;21230;-85
2022/08/21 12:12:06;;;;;;;1.50;1.30;;;18.70;99.90;;;;;;5069928;28;20480;-84
2022/08/21 12:14:44;;;;;;;0.70;0.70;;;18.80;99.90;;;;;;5068692;28;20512;-88
2022/08/21 12:17:20;;;;;;;0.83;0.63;;;18.60;99.90;;;;;;5071152;28;20540;-87
2022/08/21 12:19:59;;;;;;;0.70;0.70;;;18.70;99.90;;;;;;5079876;28;20443;-87
2022/08/21 12:22:38;;;;;;;6.93;1.50;;;18.80;99.90;;;;;;5068887;28;21195;-84
2022/08/21 12:25:08;;;;;;;0.57;0.50;;;18.90;99.90;;;;;;5081584;28;20466;-86
2022/08/21 12:27:50;;;;;;;0.80;0.70;;;19.10;99.90;;;;;;5069175;28;20464;-84
2022/08/21 12:30:33;;;;;;;0.60;0.50;;;19.10;99.90;;;;;;5070021;28;20466;-86
2022/08/21 12:33:02;;;;;;;0.70;0.60;;;19.10;99.90;;;;;;5073913;28;20473;-86
2022/08/21 12:35:37;;;;;;;0.60;0.57;;;19.10;99.90;;;;;;5063938;28;20606;-88
2022/08/21 12:38:13;;;;;;;1.50;0.50;;;19.20;99.90;;;;;;5068082;28;20534;-85
2022/08/21 12:40:43;;;;;;;1.07;0.80;;;19.50;99.90;;;;;;5069736;28;20459;-84
2022/08/21 12:43:17;;;;;;;2.40;1.10;;;19.60;99.90;;;;;;5073285;28;21207;-86
2022/08/21 12:45:46;;;;;;;2.50;0.60;;;19.60;99.90;;;;;;5064998;28;20461;-85
2022/08/21 12:48:21;;;;;;;0.50;0.50;;;19.60;99.90;;;;;;5077582;28;20549;-83
2022/08/21 12:50:52;;;;;;;0.67;0.67;;;19.80;99.90;;;;;;5077061;28;20528;-84
2022/08/21 12:53:27;;;;;;;1.03;0.83;;;19.80;99.90;;;;;;5069429;28;20466;-86
2022/08/21 12:55:59;;;;;;;0.77;0.63;;;19.70;99.90;;;;;;5073477;28;20490;-84
2022/08/21 12:58:29;;;;;;;0.57;0.57;;;19.60;99.90;;;;;;5071297;28;20455;-83
2022/08/21 13:01:01;;;;;;;0.63;0.60;;;19.70;99.90;;;;;;5067663;28;20468;-83
2022/08/21 13:03:29;;;;;;;0.60;0.60;;;19.60;99.90;;;;;;5079658;28;20454;-85